createdAt,value
2018-09-28T00:00:09.266Z,0
2018-09-28T00:01:19.356Z,0
2018-09-28T00:02:29.496Z,0
2018-09-28T00:03:39.299Z,0
2018-09-28T00:04:48.840Z,0
2018-09-28T00:05:58.108Z,0
2018-09-28T00:07:07.930Z,0
2018-09-28T00:08:18.058Z,0
2018-09-28T00:09:27.897Z,0
2018-09-28T00:10:37.520Z,0
2018-09-28T00:11:47.342Z,0
2018-09-28T00:12:57.447Z,0
2018-09-28T00:14:07.269Z,0
2018-09-28T00:15:16.823Z,0
2018-09-28T00:16:26.656Z,0
2018-09-28T00:17:36.751Z,0
2018-09-28T00:18:46.292Z,0
2018-09-28T00:19:56.103Z,0
2018-09-28T00:21:06.193Z,0
2018-09-28T00:22:16.013Z,0
2018-09-28T00:23:26.098Z,0
2018-09-28T00:24:35.918Z,0
2018-09-28T00:25:46.006Z,0
2018-09-28T00:26:56.109Z,0
2018-09-28T00:28:05.942Z,0
2018-09-28T00:29:15.481Z,0
2018-09-28T00:30:25.293Z,0
2018-09-28T00:31:35.381Z,0
2018-09-28T00:32:45.462Z,0
2018-09-28T00:33:55.548Z,0
2018-09-28T00:35:05.093Z,0
2018-09-28T00:36:14.914Z,0
2018-09-28T00:37:24.999Z,0
2018-09-28T00:38:35.089Z,0
2018-09-28T00:39:45.179Z,0
2018-09-28T00:40:55.261Z,0
2018-09-28T00:42:04.805Z,0
2018-09-28T00:43:14.885Z,0
2018-09-28T00:44:24.983Z,0
2018-09-28T00:45:34.808Z,0
2018-09-28T00:46:44.618Z,0
2018-09-28T00:47:54.431Z,0
2018-09-28T00:49:03.980Z,0
2018-09-28T00:50:13.779Z,0
2018-09-28T00:51:23.573Z,0
2018-09-28T00:52:33.639Z,0
2018-09-28T00:53:43.741Z,0
2018-09-28T00:54:53.829Z,0
2018-09-28T00:56:03.913Z,0
2018-09-28T00:57:13.720Z,0
2018-09-28T00:58:23.519Z,0
2018-09-28T00:59:33.592Z,0
2018-09-28T01:00:43.680Z,0
2018-09-28T01:01:53.489Z,0
2018-09-28T01:03:03.284Z,0
2018-09-28T01:04:13.096Z,0
2018-09-28T01:05:23.189Z,0
2018-09-28T01:06:33.269Z,0
2018-09-28T01:07:43.363Z,0
2018-09-28T01:08:53.443Z,0
2018-09-28T01:10:03.248Z,0
2018-09-28T01:11:13.047Z,0
2018-09-28T01:12:23.135Z,0
2018-09-28T01:13:32.941Z,0
2018-09-28T01:14:43.029Z,0
2018-09-28T01:15:52.575Z,0
2018-09-28T01:17:02.380Z,0
2018-09-28T01:18:11.649Z,0
2018-09-28T01:19:21.453Z,0
2018-09-28T01:20:31.531Z,0
2018-09-28T01:21:41.339Z,0
2018-09-28T01:22:51.410Z,0
2018-09-28T01:24:01.512Z,0
2018-09-28T01:25:11.323Z,0
2018-09-28T01:26:21.123Z,0
2018-09-28T01:27:30.925Z,0
2018-09-28T01:28:41.000Z,0
2018-09-28T01:29:50.802Z,0
2018-09-28T01:31:00.875Z,0
2018-09-28T01:32:10.958Z,0
2018-09-28T01:33:21.033Z,0
2018-09-28T01:34:30.565Z,0
2018-09-28T01:35:40.750Z,0
2018-09-28T01:36:50.558Z,0
2018-09-28T01:38:00.096Z,0
2018-09-28T01:39:09.908Z,0
2018-09-28T01:40:19.724Z,0
2018-09-28T01:41:29.808Z,0
2018-09-28T01:42:39.886Z,0
2018-09-28T01:43:49.714Z,0
2018-09-28T01:44:59.525Z,0
2018-09-28T01:46:08.789Z,0
2018-09-28T01:47:18.601Z,0
2018-09-28T01:48:28.407Z,0
2018-09-28T01:49:37.932Z,0
2018-09-28T01:50:47.758Z,0
2018-09-28T01:51:57.831Z,0
2018-09-28T01:53:07.633Z,0
2018-09-28T01:54:17.169Z,0
2018-09-28T01:55:26.984Z,0
2018-09-28T01:56:37.077Z,0
2018-09-28T01:57:47.164Z,0
2018-09-28T01:58:57.372Z,0
2018-09-28T02:00:06.925Z,0
2018-09-28T02:01:16.202Z,0
2018-09-28T02:02:26.281Z,0
2018-09-28T02:03:36.104Z,0
2018-09-28T02:04:46.238Z,0
2018-09-28T02:05:56.035Z,0
2018-09-28T02:07:05.850Z,0
2018-09-28T02:08:15.939Z,0
2018-09-28T02:09:25.749Z,0
2018-09-28T02:10:35.887Z,0
2018-09-28T02:11:45.699Z,0
2018-09-28T02:12:55.521Z,0
2018-09-28T02:14:05.341Z,0
2018-09-28T02:15:15.164Z,0
2018-09-28T02:16:25.255Z,0
2018-09-28T02:17:35.190Z,0
2018-09-28T02:18:45.281Z,0
2018-09-28T02:19:55.370Z,0
2018-09-28T02:21:05.217Z,0
2018-09-28T02:22:15.307Z,0
2018-09-28T02:23:24.576Z,0
2018-09-28T02:24:34.667Z,0
2018-09-28T02:25:44.751Z,0
2018-09-28T02:26:54.567Z,0
2018-09-28T02:28:04.426Z,0
2018-09-28T02:29:14.239Z,0
2018-09-28T02:30:24.334Z,0
2018-09-28T02:31:33.881Z,0
2018-09-28T02:32:43.432Z,0
2018-09-28T02:33:53.293Z,0
2018-09-28T02:35:03.396Z,0
2018-09-28T02:36:13.199Z,0
2018-09-28T02:37:22.758Z,0
2018-09-28T02:38:32.570Z,0
2018-09-28T02:39:42.724Z,0
2018-09-28T02:40:52.819Z,0
2018-09-28T02:42:02.630Z,0
2018-09-28T02:43:12.736Z,0
2018-09-28T02:44:22.829Z,0
2018-09-28T02:45:32.707Z,0
2018-09-28T02:46:42.256Z,0
2018-09-28T02:47:52.348Z,0
2018-09-28T02:49:02.185Z,0
2018-09-28T02:50:11.731Z,0
2018-09-28T02:51:21.826Z,0
2018-09-28T02:52:31.370Z,0
2018-09-28T02:53:40.915Z,0
2018-09-28T02:54:51.005Z,0
2018-09-28T02:56:00.834Z,0
2018-09-28T02:57:11.462Z,0
2018-09-28T02:58:20.743Z,0
2018-09-28T02:59:30.822Z,0
2018-09-28T03:00:40.912Z,0
2018-09-28T03:01:50.452Z,0
2018-09-28T03:03:00.256Z,0
2018-09-28T03:04:10.361Z,0
2018-09-28T03:05:20.174Z,0
2018-09-28T03:06:30.592Z,0
2018-09-28T03:07:40.406Z,0
2018-09-28T03:08:50.223Z,0
2018-09-28T03:09:59.777Z,0
2018-09-28T03:11:09.877Z,0
2018-09-28T03:12:19.963Z,0
2018-09-28T03:13:29.782Z,0
2018-09-28T03:14:39.323Z,0
2018-09-28T03:15:48.873Z,0
2018-09-28T03:16:58.987Z,0
2018-09-28T03:18:08.807Z,0
2018-09-28T03:19:18.625Z,0
2018-09-28T03:20:28.747Z,0
2018-09-28T03:21:38.555Z,0
2018-09-28T03:22:48.095Z,0
2018-09-28T03:23:58.135Z,0
2018-09-28T03:25:08.171Z,0
2018-09-28T03:26:18.221Z,0
2018-09-28T03:27:27.719Z,0
2018-09-28T03:28:37.483Z,0
2018-09-28T03:29:47.252Z,0
2018-09-28T03:30:57.302Z,0
2018-09-28T03:32:06.851Z,0
2018-09-28T03:33:16.613Z,0
2018-09-28T03:34:26.642Z,0
2018-09-28T03:35:36.403Z,0
2018-09-28T03:36:46.163Z,0
2018-09-28T03:37:55.653Z,0
2018-09-28T03:39:05.680Z,0
2018-09-28T03:40:15.447Z,0
2018-09-28T03:41:25.488Z,0
2018-09-28T03:42:35.534Z,0
2018-09-28T03:43:45.665Z,0
2018-09-28T03:44:54.891Z,0
2018-09-28T03:46:04.382Z,0
2018-09-28T03:47:14.144Z,0
2018-09-28T03:48:24.181Z,0
2018-09-28T03:49:34.270Z,0
2018-09-28T03:50:44.317Z,0
2018-09-28T03:51:54.082Z,0
2018-09-28T03:53:04.121Z,0
2018-09-28T03:54:13.620Z,0
2018-09-28T03:55:23.694Z,0
2018-09-28T03:56:33.457Z,0
2018-09-28T03:57:43.486Z,0
2018-09-28T03:58:53.244Z,0
2018-09-28T04:00:03.286Z,0
2018-09-28T04:01:13.064Z,0
2018-09-28T04:02:23.093Z,0
2018-09-28T04:03:32.590Z,0
2018-09-28T04:04:42.625Z,0
2018-09-28T04:05:52.665Z,0
2018-09-28T04:07:02.753Z,0
2018-09-28T04:08:12.512Z,0
2018-09-28T04:09:22.017Z,0
2018-09-28T04:10:32.058Z,0
2018-09-28T04:11:41.559Z,0
2018-09-28T04:12:51.599Z,0
2018-09-28T04:14:01.367Z,0
2018-09-28T04:15:11.234Z,0
2018-09-28T04:16:21.083Z,0
2018-09-28T04:17:30.861Z,0
2018-09-28T04:18:40.946Z,0
2018-09-28T04:19:50.990Z,0
2018-09-28T04:21:00.760Z,0
2018-09-28T04:22:11.250Z,0
2018-09-28T04:23:21.277Z,0
2018-09-28T04:24:31.060Z,0
2018-09-28T04:25:40.825Z,0
2018-09-28T04:26:50.592Z,0
2018-09-28T04:28:00.351Z,0
2018-09-28T04:29:10.110Z,0
2018-09-28T04:30:20.251Z,0
2018-09-28T04:31:30.009Z,0
2018-09-28T04:32:39.776Z,0
2018-09-28T04:33:49.539Z,0
2018-09-28T04:34:59.578Z,0
2018-09-28T04:36:09.660Z,0
2018-09-28T04:37:19.688Z,0
2018-09-28T04:38:29.721Z,0
2018-09-28T04:39:39.490Z,0
2018-09-28T04:40:49.518Z,0
2018-09-28T04:41:59.329Z,0
2018-09-28T04:43:08.562Z,0
2018-09-28T04:44:18.663Z,0
2018-09-28T04:45:29.164Z,0
2018-09-28T04:46:38.927Z,0
2018-09-28T04:47:48.737Z,0
2018-09-28T04:48:58.763Z,0
2018-09-28T04:50:08.253Z,0
2018-09-28T04:51:18.007Z,0
2018-09-28T04:52:27.227Z,0
2018-09-28T04:53:37.044Z,0
2018-09-28T04:54:46.803Z,0
2018-09-28T04:55:56.565Z,0
2018-09-28T04:57:06.055Z,0
2018-09-28T04:58:15.543Z,0
2018-09-28T04:59:25.875Z,0
2018-09-28T05:00:35.910Z,0
2018-09-28T05:01:45.935Z,0
2018-09-28T05:02:55.956Z,0
2018-09-28T05:04:05.445Z,0
2018-09-28T05:05:15.257Z,5
2018-09-28T05:06:25.019Z,5
2018-09-28T05:07:35.053Z,5
2018-09-28T05:08:44.809Z,5
2018-09-28T05:09:54.567Z,5
2018-09-28T05:11:04.114Z,5
2018-09-28T05:12:14.138Z,5
2018-09-28T05:13:24.275Z,10
2018-09-28T05:14:34.307Z,10
2018-09-28T05:15:43.801Z,10
2018-09-28T05:16:53.659Z,10
2018-09-28T05:18:02.887Z,10
2018-09-28T05:19:12.650Z,15
2018-09-28T05:20:22.682Z,15
2018-09-28T05:21:32.707Z,15
2018-09-28T05:22:42.249Z,20
2018-09-28T05:23:52.010Z,20
2018-09-28T05:25:02.040Z,25
2018-09-28T05:26:11.798Z,25
2018-09-28T05:27:21.842Z,25
2018-09-28T05:28:31.652Z,25
2018-09-28T05:29:41.416Z,25
2018-09-28T05:31:01.832Z,30
2018-09-28T05:32:12.206Z,35
2018-09-28T05:33:22.310Z,30
2018-09-28T05:34:32.119Z,35
2018-09-28T05:35:41.877Z,35
2018-09-28T05:36:51.097Z,40
2018-09-28T05:38:00.864Z,40
2018-09-28T05:39:10.894Z,40
2018-09-28T05:40:20.438Z,40
2018-09-28T05:41:30.197Z,40
2018-09-28T05:42:40.229Z,45
2018-09-28T05:43:50.408Z,45
2018-09-28T05:45:00.100Z,45
2018-09-28T05:46:10.191Z,45
2018-09-28T05:47:19.957Z,45
2018-09-28T05:48:29.979Z,50
2018-09-28T05:49:39.492Z,50
2018-09-28T05:50:48.978Z,50
2018-09-28T05:51:59.052Z,50
2018-09-28T05:53:08.811Z,55
2018-09-28T05:54:18.840Z,55
2018-09-28T05:55:28.865Z,55
2018-09-28T05:56:38.357Z,60
2018-09-28T05:57:48.166Z,60
2018-09-28T05:58:58.205Z,65
2018-09-28T06:00:08.249Z,70
2018-09-28T06:01:17.765Z,75
2018-09-28T06:02:27.801Z,75
2018-09-28T06:03:37.925Z,75
2018-09-28T06:04:47.958Z,80
2018-09-28T06:05:58.035Z,80
2018-09-28T06:07:07.542Z,80
2018-09-28T06:08:17.573Z,85
2018-09-28T06:09:27.649Z,85
2018-09-28T06:10:37.405Z,85
2018-09-28T06:11:47.428Z,85
2018-09-28T06:12:57.455Z,85
2018-09-28T06:14:07.482Z,85
2018-09-28T06:15:17.560Z,85
2018-09-28T06:16:27.584Z,90
2018-09-28T06:17:37.338Z,90
2018-09-28T06:18:47.894Z,90
2018-09-28T06:19:57.129Z,90
2018-09-28T06:21:06.801Z,95
2018-09-28T06:22:16.582Z,95
2018-09-28T06:23:26.342Z,95
2018-09-28T06:24:36.111Z,95
2018-09-28T06:25:45.100Z,100
2018-09-28T06:26:54.914Z,100
2018-09-28T06:28:04.135Z,100
2018-09-28T06:29:13.626Z,100
2018-09-28T06:30:23.997Z,100
2018-09-28T06:31:34.028Z,105
2018-09-28T06:32:44.110Z,105
2018-09-28T06:33:53.875Z,105
2018-09-28T06:35:03.639Z,105
2018-09-28T06:36:13.591Z,110
2018-09-28T06:37:23.677Z,110
2018-09-28T06:38:33.754Z,110
2018-09-28T06:39:43.809Z,110
2018-09-28T06:40:53.840Z,110
2018-09-28T06:42:04.119Z,115
2018-09-28T06:43:13.492Z,115
2018-09-28T06:44:23.355Z,115
2018-09-28T06:45:32.757Z,115
2018-09-28T06:46:42.766Z,115
2018-09-28T06:47:53.096Z,125
2018-09-28T06:49:03.225Z,125
2018-09-28T06:50:13.034Z,120
2018-09-28T06:51:22.744Z,120
2018-09-28T06:52:32.440Z,120
2018-09-28T06:53:42.284Z,125
2018-09-28T06:54:52.095Z,125
2018-09-28T06:56:01.902Z,125
2018-09-28T06:57:11.941Z,125
2018-09-28T06:58:22.494Z,125
2018-09-28T06:59:32.514Z,125
2018-09-28T07:00:42.270Z,130
2018-09-28T07:01:52.135Z,130
2018-09-28T07:03:02.163Z,130
2018-09-28T07:04:11.909Z,130
2018-09-28T07:05:21.671Z,130
2018-09-28T07:06:31.587Z,130
2018-09-28T07:07:41.665Z,130
2018-09-28T07:08:51.160Z,135
2018-09-28T07:10:00.660Z,135
2018-09-28T07:11:10.696Z,135
2018-09-28T07:12:21.110Z,135
2018-09-28T07:13:30.781Z,135
2018-09-28T07:14:40.027Z,135
2018-09-28T07:15:49.785Z,135
2018-09-28T07:16:59.581Z,135
2018-09-28T07:18:10.084Z,135
2018-09-28T07:19:20.175Z,135
2018-09-28T07:20:30.201Z,135
2018-09-28T07:21:39.966Z,135
2018-09-28T07:22:50.023Z,135
2018-09-28T07:24:00.152Z,135
2018-09-28T07:25:09.857Z,135
2018-09-28T07:26:20.000Z,140
2018-09-28T07:27:30.026Z,140
2018-09-28T07:28:39.519Z,140
2018-09-28T07:29:49.520Z,140
2018-09-28T07:30:59.121Z,140
2018-09-28T07:32:08.881Z,140
2018-09-28T07:33:18.641Z,140
2018-09-28T07:34:28.401Z,140
2018-09-28T07:35:38.155Z,140
2018-09-28T07:36:49.136Z,140
2018-09-28T07:37:59.185Z,145
2018-09-28T07:39:09.211Z,145
2018-09-28T07:40:18.985Z,145
2018-09-28T07:41:28.472Z,145
2018-09-28T07:42:38.552Z,145
2018-09-28T07:43:48.311Z,145
2018-09-28T07:44:58.340Z,145
2018-09-28T07:46:08.096Z,145
2018-09-28T07:47:17.585Z,145
2018-09-28T07:48:27.599Z,145
2018-09-28T07:49:37.631Z,150
2018-09-28T07:50:47.392Z,150
2018-09-28T07:51:57.148Z,150
2018-09-28T07:53:06.662Z,150
2018-09-28T07:54:16.199Z,150
2018-09-28T07:55:25.959Z,150
2018-09-28T07:56:35.718Z,150
2018-09-28T07:57:45.223Z,150
2018-09-28T07:58:55.254Z,150
2018-09-28T08:00:07.881Z,150
2018-09-28T08:01:17.640Z,150
2018-09-28T08:02:27.397Z,155
2018-09-28T08:03:37.423Z,155
2018-09-28T08:04:47.465Z,155
2018-09-28T08:05:56.953Z,155
2018-09-28T08:07:06.986Z,155
2018-09-28T08:08:17.022Z,155
2018-09-28T08:09:26.793Z,155
2018-09-28T08:10:36.552Z,155
2018-09-28T08:11:46.311Z,155
2018-09-28T08:12:56.341Z,155
2018-09-28T08:14:06.371Z,155
2018-09-28T08:15:16.401Z,160
2018-09-28T08:16:26.173Z,160
2018-09-28T08:17:36.248Z,160
2018-09-28T08:18:46.276Z,160
2018-09-28T08:19:56.302Z,160
2018-09-28T08:21:06.340Z,160
2018-09-28T08:22:16.386Z,160
2018-09-28T08:23:26.789Z,160
2018-09-28T08:24:36.972Z,160
2018-09-28T08:25:47.047Z,160
2018-09-28T08:26:56.591Z,160
2018-09-28T08:28:06.085Z,160
2018-09-28T08:29:15.892Z,165
2018-09-28T08:30:25.565Z,165
2018-09-28T08:31:35.349Z,165
2018-09-28T08:32:45.382Z,165
2018-09-28T08:33:54.875Z,165
2018-09-28T08:35:04.917Z,165
2018-09-28T08:36:15.110Z,165
2018-09-28T08:37:25.161Z,165
2018-09-28T08:38:35.188Z,165
2018-09-28T08:39:45.236Z,165
2018-09-28T08:40:55.314Z,165
2018-09-28T08:42:05.850Z,165
2018-09-28T08:43:15.614Z,165
2018-09-28T08:44:25.110Z,170
2018-09-28T08:45:34.870Z,170
2018-09-28T08:46:44.906Z,170
2018-09-28T08:47:54.666Z,170
2018-09-28T08:49:04.513Z,170
2018-09-28T08:50:14.554Z,170
2018-09-28T08:51:24.044Z,170
2018-09-28T08:52:33.541Z,170
2018-09-28T08:53:43.304Z,170
2018-09-28T08:54:52.805Z,170
2018-09-28T08:56:02.833Z,170
2018-09-28T08:57:12.860Z,170
2018-09-28T08:58:22.892Z,170
2018-09-28T08:59:32.388Z,170
2018-09-28T09:00:42.158Z,170
2018-09-28T09:01:51.380Z,170
2018-09-28T09:03:00.339Z,175
2018-09-28T09:04:09.560Z,175
2018-09-28T09:05:19.325Z,175
2018-09-28T09:06:28.816Z,175
2018-09-28T09:07:38.572Z,175
2018-09-28T09:08:48.341Z,175
2018-09-28T09:09:58.376Z,175
2018-09-28T09:11:07.867Z,175
2018-09-28T09:12:17.896Z,175
2018-09-28T09:13:27.129Z,175
2018-09-28T09:14:36.892Z,175
2018-09-28T09:15:47.477Z,175
2018-09-28T09:16:57.511Z,175
2018-09-28T09:18:07.379Z,180
2018-09-28T09:19:16.894Z,175
2018-09-28T09:20:26.673Z,180
2018-09-28T09:21:36.169Z,180
2018-09-28T09:22:45.658Z,180
2018-09-28T09:23:55.952Z,180
2018-09-28T09:25:06.058Z,180
2018-09-28T09:26:15.820Z,180
2018-09-28T09:27:25.636Z,180
2018-09-28T09:28:35.672Z,180
2018-09-28T09:29:45.443Z,180
2018-09-28T09:30:55.482Z,185
2018-09-28T09:32:05.506Z,185
2018-09-28T09:33:15.533Z,185
2018-09-28T09:34:25.570Z,185
2018-09-28T09:35:35.330Z,185
2018-09-28T09:36:45.816Z,185
2018-09-28T09:37:55.578Z,185
2018-09-28T09:39:05.338Z,185
2018-09-28T09:40:14.292Z,185
2018-09-28T09:41:24.049Z,185
2018-09-28T09:42:34.149Z,185
2018-09-28T09:43:43.928Z,185
2018-09-28T09:44:53.421Z,185
2018-09-28T09:46:03.448Z,185
2018-09-28T09:47:13.212Z,185
2018-09-28T09:48:23.298Z,190
2018-09-28T09:49:33.337Z,190
2018-09-28T09:50:43.100Z,190
2018-09-28T09:51:52.600Z,190
2018-09-28T09:53:02.632Z,190
2018-09-28T09:54:12.137Z,190
2018-09-28T09:55:21.899Z,190
2018-09-28T09:56:31.656Z,190
2018-09-28T09:57:41.990Z,190
2018-09-28T09:58:52.033Z,190
2018-09-28T10:00:01.802Z,190
2018-09-28T10:01:11.838Z,195
2018-09-28T10:02:21.606Z,195
2018-09-28T10:03:31.099Z,200
2018-09-28T10:04:40.864Z,200
2018-09-28T10:05:50.624Z,200
2018-09-28T10:07:00.395Z,200
2018-09-28T10:08:10.440Z,205
2018-09-28T10:09:20.472Z,200
2018-09-28T10:10:30.013Z,205
2018-09-28T10:11:39.771Z,200
2018-09-28T10:12:49.589Z,205
2018-09-28T10:14:07.176Z,205
2018-09-28T10:15:16.943Z,210
2018-09-28T10:16:26.974Z,210
2018-09-28T10:17:37.018Z,220
2018-09-28T10:18:47.057Z,235
2018-09-28T10:19:56.602Z,265
2018-09-28T10:21:06.367Z,300
2018-09-28T10:22:16.135Z,280
2018-09-28T10:23:26.165Z,255
2018-09-28T10:24:35.929Z,220
2018-09-28T10:25:45.957Z,230
2018-09-28T10:26:55.798Z,200
2018-09-28T10:28:05.108Z,210
2018-09-28T10:29:15.204Z,205
2018-09-28T10:30:24.701Z,205
2018-09-28T10:31:34.732Z,205
2018-09-28T10:32:44.785Z,210
2018-09-28T10:33:54.286Z,210
2018-09-28T10:35:04.050Z,210
2018-09-28T10:36:14.073Z,210
2018-09-28T10:37:24.103Z,210
2018-09-28T10:38:33.329Z,215
2018-09-28T10:39:43.419Z,215
2018-09-28T10:40:54.144Z,220
2018-09-28T10:42:04.260Z,230
2018-09-28T10:43:14.032Z,230
2018-09-28T10:44:23.800Z,225
2018-09-28T10:45:34.193Z,230
2018-09-28T10:46:44.021Z,230
2018-09-28T10:47:53.857Z,215
2018-09-28T10:49:03.630Z,235
2018-09-28T10:50:13.397Z,240
2018-09-28T10:51:23.841Z,255
2018-09-28T10:52:35.164Z,315
2018-09-28T10:53:44.670Z,455
2018-09-28T10:54:54.709Z,570
2018-09-28T10:56:04.477Z,590
2018-09-28T10:57:14.403Z,660
2018-09-28T10:58:24.919Z,710
2018-09-28T10:59:35.073Z,305
2018-09-28T11:00:44.678Z,305
2018-09-28T11:01:54.463Z,280
2018-09-28T11:03:04.230Z,265
2018-09-28T11:04:14.150Z,280
2018-09-28T11:05:24.263Z,640
2018-09-28T11:06:34.297Z,560
2018-09-28T11:07:43.803Z,665
2018-09-28T11:08:53.449Z,730
2018-09-28T11:10:03.505Z,760
2018-09-28T11:11:13.277Z,705
2018-09-28T11:12:23.306Z,340
2018-09-28T11:13:33.081Z,685
2018-09-28T11:14:43.119Z,705
2018-09-28T11:15:53.244Z,690
2018-09-28T11:17:03.018Z,675
2018-09-28T11:18:12.517Z,345
2018-09-28T11:19:22.286Z,640
2018-09-28T11:20:32.343Z,630
2018-09-28T11:21:42.756Z,630
2018-09-28T11:22:52.803Z,635
2018-09-28T11:24:02.860Z,635
2018-09-28T11:25:12.628Z,640
2018-09-28T11:26:22.921Z,645
2018-09-28T11:27:33.515Z,650
2018-09-28T11:28:43.566Z,665
2018-09-28T11:29:53.609Z,685
2018-09-28T11:31:03.650Z,690
2018-09-28T11:32:13.417Z,250
2018-09-28T11:33:23.901Z,225
2018-09-28T11:34:34.065Z,235
2018-09-28T11:35:43.833Z,665
2018-09-28T11:36:53.608Z,640
2018-09-28T11:38:03.791Z,680
2018-09-28T11:39:13.724Z,675
2018-09-28T11:40:23.769Z,690
2018-09-28T11:41:33.813Z,700
2018-09-28T11:42:43.853Z,710
2018-09-28T11:43:53.897Z,715
2018-09-28T11:45:03.414Z,725
2018-09-28T11:46:13.185Z,750
2018-09-28T11:47:22.698Z,770
2018-09-28T11:48:32.200Z,790
2018-09-28T11:49:41.972Z,765
2018-09-28T11:50:52.019Z,745
2018-09-28T11:52:02.066Z,270
2018-09-28T11:53:12.115Z,240
2018-09-28T11:54:21.617Z,235
2018-09-28T11:55:31.653Z,270
2018-09-28T11:56:41.693Z,340
2018-09-28T11:57:51.694Z,355
2018-09-28T11:59:01.468Z,320
2018-09-28T12:00:10.882Z,300
2018-09-28T12:01:20.656Z,315
2018-09-28T12:02:30.429Z,320
2018-09-28T12:03:40.626Z,320
2018-09-28T12:04:50.445Z,310
2018-09-28T12:06:00.539Z,310
2018-09-28T12:07:11.100Z,305
2018-09-28T12:08:21.193Z,310
2018-09-28T12:09:31.518Z,315
2018-09-28T12:10:41.344Z,340
2018-09-28T12:11:51.376Z,375
2018-09-28T12:13:01.417Z,360
2018-09-28T12:14:11.465Z,305
2018-09-28T12:15:21.984Z,260
2018-09-28T12:16:31.813Z,225
2018-09-28T12:17:40.781Z,215
2018-09-28T12:18:50.883Z,215
2018-09-28T12:20:00.743Z,220
2018-09-28T12:21:10.868Z,230
2018-09-28T12:22:20.959Z,250
2018-09-28T12:23:30.718Z,280
2018-09-28T12:24:40.707Z,310
2018-09-28T12:25:50.527Z,340
2018-09-28T12:26:59.749Z,390
2018-09-28T12:28:09.796Z,430
2018-09-28T12:29:19.828Z,470
2018-09-28T12:30:30.011Z,490
2018-09-28T12:31:40.055Z,550
2018-09-28T12:32:50.091Z,575
2018-09-28T12:33:59.587Z,530
2018-09-28T12:35:09.365Z,475
2018-09-28T12:36:19.678Z,475
2018-09-28T12:37:29.478Z,520
2018-09-28T12:38:39.241Z,730
2018-09-28T12:39:50.054Z,1005
2018-09-28T12:40:59.564Z,1295
2018-09-28T12:42:09.655Z,2095
2018-09-28T12:43:19.477Z,1285
2018-09-28T12:44:30.392Z,1015
2018-09-28T12:45:40.555Z,570
2018-09-28T12:46:50.032Z,1625
2018-09-28T12:47:59.803Z,1485
2018-09-28T12:49:09.844Z,545
2018-09-28T12:50:20.258Z,545
2018-09-28T12:51:30.061Z,460
2018-09-28T12:52:39.569Z,405
2018-09-28T12:53:50.000Z,395
2018-09-28T12:55:00.437Z,465
2018-09-28T12:56:10.267Z,465
2018-09-28T12:57:20.306Z,370
2018-09-28T12:58:30.076Z,320
2018-09-28T12:59:39.840Z,275
2018-09-28T13:00:50.439Z,285
2018-09-28T13:02:00.338Z,305
2018-09-28T13:03:10.115Z,275
2018-09-28T13:04:19.608Z,295
2018-09-28T13:05:29.375Z,255
2018-09-28T13:06:39.747Z,245
2018-09-28T13:07:49.841Z,245
2018-09-28T13:08:58.807Z,240
2018-09-28T13:10:08.310Z,235
2018-09-28T13:11:18.346Z,235
2018-09-28T13:12:29.059Z,235
2018-09-28T13:13:39.106Z,230
2018-09-28T13:14:49.714Z,240
2018-09-28T13:15:59.503Z,235
2018-09-28T13:17:09.265Z,225
2018-09-28T13:18:18.583Z,220
2018-09-28T13:19:28.409Z,250
2018-09-28T13:20:38.665Z,265
2018-09-28T13:21:49.100Z,300
2018-09-28T13:22:58.818Z,240
2018-09-28T13:24:08.996Z,215
2018-09-28T13:25:18.458Z,215
2018-09-28T13:26:28.710Z,225
2018-09-28T13:27:38.755Z,210
2018-09-28T13:28:48.520Z,220
2018-09-28T13:29:58.289Z,220
2018-09-28T13:31:08.329Z,220
2018-09-28T13:32:18.310Z,230
2018-09-28T13:33:28.108Z,240
2018-09-28T13:34:38.137Z,260
2018-09-28T13:35:48.175Z,265
2018-09-28T13:36:58.679Z,290
2018-09-28T13:38:08.771Z,285
2018-09-28T13:39:19.238Z,255
2018-09-28T13:40:28.999Z,240
2018-09-28T13:41:39.038Z,250
2018-09-28T13:42:49.543Z,320
2018-09-28T13:43:59.388Z,435
2018-09-28T13:45:09.930Z,365
2018-09-28T13:46:20.381Z,200
2018-09-28T13:47:30.429Z,555
2018-09-28T13:48:40.305Z,210
2018-09-28T13:49:50.410Z,500
2018-09-28T13:51:00.724Z,325
2018-09-28T13:52:10.767Z,235
2018-09-28T13:53:20.516Z,240
2018-09-28T13:54:30.705Z,230
2018-09-28T13:55:40.529Z,210
2018-09-28T13:56:50.721Z,400
2018-09-28T13:57:59.873Z,210
2018-09-28T13:59:09.366Z,195
2018-09-28T14:00:19.598Z,270
2018-09-28T14:01:29.423Z,220
2018-09-28T14:02:39.753Z,210
2018-09-28T14:03:48.985Z,210
2018-09-28T14:04:58.906Z,185
2018-09-28T14:06:08.763Z,185
2018-09-28T14:07:20.346Z,200
2018-09-28T14:08:30.250Z,205
2018-09-28T14:09:40.297Z,210
2018-09-28T14:10:50.752Z,215
2018-09-28T14:12:00.850Z,215
2018-09-28T14:13:10.126Z,220
2018-09-28T14:14:20.455Z,320
2018-09-28T14:15:30.501Z,215
2018-09-28T14:16:40.580Z,225
2018-09-28T14:17:50.437Z,215
2018-09-28T14:19:00.387Z,210
2018-09-28T14:20:10.207Z,220
2018-09-28T14:21:20.254Z,240
2018-09-28T14:22:30.755Z,235
2018-09-28T14:23:40.802Z,300
2018-09-28T14:24:51.123Z,260
2018-09-28T14:26:00.976Z,410
2018-09-28T14:27:10.748Z,635
2018-09-28T14:28:20.782Z,1130
2018-09-28T14:29:30.027Z,1460
2018-09-28T14:30:40.294Z,1420
2018-09-28T14:31:50.383Z,1615
2018-09-28T14:33:00.561Z,1540
2018-09-28T14:34:10.728Z,1560
2018-09-28T14:35:20.775Z,1415
2018-09-28T14:36:31.343Z,1540
2018-09-28T14:37:41.126Z,1180
2018-09-28T14:38:51.609Z,895
2018-09-28T14:40:01.380Z,800
2018-09-28T14:41:11.149Z,850
2018-09-28T14:42:21.252Z,845
2018-09-28T14:43:31.051Z,1035
2018-09-28T14:44:40.812Z,760
2018-09-28T14:45:50.636Z,760
2018-09-28T14:47:00.572Z,545
2018-09-28T14:48:10.673Z,790
2018-09-28T14:49:21.221Z,1135
2018-09-28T14:50:30.581Z,1035
2018-09-28T14:51:40.366Z,1230
2018-09-28T14:52:50.592Z,1265
2018-09-28T14:54:00.966Z,1440
2018-09-28T14:55:10.163Z,1430
2018-09-28T14:56:20.173Z,1465
2018-09-28T14:57:29.882Z,1460
2018-09-28T14:58:39.853Z,1460
2018-09-28T14:59:49.954Z,1440
2018-09-28T15:01:01.364Z,1455
2018-09-28T15:02:11.646Z,1420
2018-09-28T15:03:21.705Z,1400
2018-09-28T15:04:32.262Z,1405
2018-09-28T15:05:42.361Z,1400
2018-09-28T15:06:52.768Z,1365
2018-09-28T15:08:02.594Z,1350
2018-09-28T15:09:12.374Z,1375
2018-09-28T15:10:22.511Z,1290
2018-09-28T15:11:32.409Z,1340
2018-09-28T15:12:56.913Z,1305
2018-09-28T15:14:06.719Z,1315
2018-09-28T15:15:17.014Z,1295
2018-09-28T15:16:28.377Z,1290
2018-09-28T15:17:38.428Z,1255
2018-09-28T15:18:48.223Z,1205
2018-09-28T15:19:58.292Z,1185
2018-09-28T15:21:08.071Z,1205
2018-09-28T15:22:17.899Z,1180
2018-09-28T15:23:27.949Z,1120
2018-09-28T15:24:37.990Z,790
2018-09-28T15:25:47.494Z,410
2018-09-28T15:26:57.265Z,345
2018-09-28T15:28:07.363Z,305
2018-09-28T15:29:17.414Z,330
2018-09-28T15:30:27.093Z,250
2018-09-28T15:31:37.129Z,210
2018-09-28T15:32:46.637Z,160
2018-09-28T15:33:56.462Z,160
2018-09-28T15:35:06.248Z,200
2018-09-28T15:36:16.344Z,230
2018-09-28T15:37:26.384Z,185
2018-09-28T15:38:36.440Z,190
2018-09-28T15:39:45.991Z,355
2018-09-28T15:40:56.026Z,310
2018-09-28T15:42:05.525Z,190
2018-09-28T15:43:15.567Z,165
2018-09-28T15:44:25.335Z,165
2018-09-28T15:45:35.395Z,135
2018-09-28T15:46:45.430Z,125
2018-09-28T15:47:55.356Z,125
2018-09-28T15:49:05.394Z,125
2018-09-28T15:50:15.178Z,130
2018-09-28T15:51:24.683Z,135
2018-09-28T15:52:33.915Z,155
2018-09-28T15:53:43.690Z,125
2018-09-28T15:54:53.720Z,115
2018-09-28T15:56:03.494Z,110
2018-09-28T15:57:13.042Z,115
2018-09-28T15:58:22.822Z,125
2018-09-28T15:59:32.321Z,110
2018-09-28T16:00:42.356Z,105
2018-09-28T16:01:52.394Z,100
2018-09-28T16:03:02.209Z,100
2018-09-28T16:04:11.709Z,120
2018-09-28T16:05:21.211Z,120
2018-09-28T16:06:30.974Z,115
2018-09-28T16:07:40.747Z,100
2018-09-28T16:08:50.566Z,95
2018-09-28T16:10:00.327Z,100
2018-09-28T16:11:10.358Z,95
2018-09-28T16:12:20.269Z,90
2018-09-28T16:13:30.301Z,80
2018-09-28T16:14:40.071Z,75
2018-09-28T16:15:49.305Z,75
2018-09-28T16:16:59.350Z,75
2018-09-28T16:18:09.393Z,70
2018-09-28T16:19:19.164Z,70
2018-09-28T16:20:29.194Z,75
2018-09-28T16:21:38.972Z,90
2018-09-28T16:22:48.739Z,80
2018-09-28T16:23:58.502Z,70
2018-09-28T16:25:08.266Z,65